createdAt,value
2018-11-06T00:01:09.105Z,26.70
2018-11-06T00:03:42.894Z,28.10
2018-11-06T00:06:10.992Z,26.20
2018-11-06T00:08:38.774Z,24.80
2018-11-06T00:11:07.430Z,26.50
2018-11-06T00:13:35.108Z,28.50
2018-11-06T00:16:02.840Z,29.07
2018-11-06T00:18:30.560Z,28.67
2018-11-06T00:20:58.296Z,29.40
2018-11-06T00:23:26.088Z,27.87
2018-11-06T00:25:53.718Z,27.60
2018-11-06T00:28:21.438Z,29.43
2018-11-06T00:30:49.466Z,28.97
2018-11-06T00:33:18.655Z,31.00
2018-11-06T00:35:47.296Z,26.90
2018-11-06T00:38:15.326Z,24.03
2018-11-06T00:40:43.109Z,22.43
2018-11-06T00:43:10.953Z,22.00
2018-11-06T00:45:39.134Z,23.53
2018-11-06T00:48:14.010Z,24.00
2018-11-06T00:50:41.969Z,21.90
2018-11-06T00:53:10.049Z,24.57
2018-11-06T00:55:38.010Z,26.03
2018-11-06T00:58:06.110Z,31.17
2018-11-06T01:00:33.821Z,29.63
2018-11-06T01:03:01.619Z,27.80
2018-11-06T01:05:29.313Z,27.40
2018-11-06T01:07:57.116Z,29.50
2018-11-06T01:10:24.933Z,27.10
2018-11-06T01:12:53.036Z,29.80
2018-11-06T01:15:20.885Z,28.60
2018-11-06T01:17:48.868Z,29.17
2018-11-06T01:20:18.204Z,28.60
2018-11-06T01:22:46.596Z,27.80
2018-11-06T01:25:15.089Z,29.80
2018-11-06T01:27:42.928Z,26.90
2018-11-06T01:30:14.296Z,23.77
2018-11-06T01:32:42.604Z,26.60
2018-11-06T01:35:11.847Z,26.17
2018-11-06T01:37:40.480Z,25.17
2018-11-06T01:40:10.440Z,25.27
2018-11-06T01:42:38.357Z,24.80
2018-11-06T01:45:08.351Z,23.87
2018-11-06T01:47:36.499Z,24.00
2018-11-06T01:50:05.503Z,23.37
2018-11-06T01:52:33.380Z,28.80
2018-11-06T01:55:01.095Z,22.60
2018-11-06T01:57:29.133Z,24.40
2018-11-06T01:59:57.322Z,22.73
2018-11-06T02:02:25.064Z,21.83
2018-11-06T02:04:52.748Z,22.10
2018-11-06T02:07:20.549Z,20.27
2018-11-06T02:09:48.607Z,22.33
2018-11-06T02:12:16.889Z,18.23
2018-11-06T02:14:45.169Z,18.43
2018-11-06T02:17:13.172Z,18.97
2018-11-06T02:19:41.021Z,17.10
2018-11-06T02:22:08.818Z,18.73
2018-11-06T02:24:36.586Z,15.67
2018-11-06T02:27:04.482Z,17.33
2018-11-06T02:29:32.202Z,16.87
2018-11-06T02:31:59.946Z,17.23
2018-11-06T02:34:27.754Z,15.27
2018-11-06T02:36:55.504Z,15.13
2018-11-06T02:39:23.208Z,15.13
2018-11-06T02:41:50.900Z,16.10
2018-11-06T02:44:18.829Z,16.70
2018-11-06T02:46:46.732Z,15.93
2018-11-06T02:49:14.457Z,17.57
2018-11-06T02:51:42.110Z,18.47
2018-11-06T02:54:09.839Z,16.60
2018-11-06T02:56:37.542Z,14.93
2018-11-06T02:59:05.349Z,16.20
2018-11-06T03:01:33.079Z,19.23
2018-11-06T03:04:00.960Z,15.07
2018-11-06T03:06:28.715Z,15.33
2018-11-06T03:08:56.861Z,15.20
2018-11-06T03:11:24.593Z,16.13
2018-11-06T03:13:52.307Z,17.40
2018-11-06T03:16:19.924Z,16.03
2018-11-06T03:18:47.593Z,14.83
2018-11-06T03:21:15.304Z,15.53
2018-11-06T03:23:43.052Z,16.00
2018-11-06T03:26:10.979Z,16.13
2018-11-06T03:28:39.146Z,16.53
2018-11-06T03:31:07.023Z,17.47
2018-11-06T03:33:35.062Z,16.83
2018-11-06T03:36:02.797Z,15.60
2018-11-06T03:38:30.630Z,14.97
2018-11-06T03:40:58.403Z,17.63
2018-11-06T03:43:26.189Z,18.10
2018-11-06T03:45:54.172Z,15.80
2018-11-06T03:48:22.221Z,16.60
2018-11-06T03:50:50.143Z,14.63
2018-11-06T03:53:17.845Z,14.70
2018-11-06T03:55:45.553Z,15.70
2018-11-06T03:58:13.269Z,16.60
2018-11-06T04:00:40.913Z,16.20
2018-11-06T04:03:08.583Z,17.70
2018-11-06T04:05:36.279Z,16.20
2018-11-06T04:08:04.187Z,15.37
2018-11-06T04:10:31.838Z,14.43
2018-11-06T04:13:00.501Z,14.00
2018-11-06T04:15:28.277Z,15.77
2018-11-06T04:17:56.595Z,14.20
2018-11-06T04:20:25.600Z,15.63
2018-11-06T04:22:53.742Z,16.23
2018-11-06T04:25:21.519Z,16.23
2018-11-06T04:27:49.199Z,15.50
2018-11-06T04:30:16.985Z,16.23
2018-11-06T04:32:45.435Z,15.63
2018-11-06T04:35:14.058Z,15.43
2018-11-06T04:37:42.388Z,15.50
2018-11-06T04:40:11.884Z,16.07
2018-11-06T04:42:39.580Z,16.63
2018-11-06T04:45:08.673Z,15.40
2018-11-06T04:47:36.721Z,16.43
2018-11-06T04:50:04.614Z,15.97
2018-11-06T04:52:32.405Z,15.03
2018-11-06T04:55:00.230Z,14.37
2018-11-06T04:57:28.040Z,15.27
2018-11-06T04:59:55.832Z,15.63
2018-11-06T05:02:23.851Z,15.97
2018-11-06T05:04:52.184Z,15.50
2018-11-06T05:07:20.168Z,12.77
2018-11-06T05:09:48.167Z,15.10
2018-11-06T05:12:16.353Z,13.60
2018-11-06T05:14:44.350Z,11.63
2018-11-06T05:17:12.165Z,11.33
2018-11-06T05:19:40.173Z,12.73
2018-11-06T05:22:08.418Z,12.90
2018-11-06T05:24:36.418Z,12.37
2018-11-06T05:27:05.116Z,13.10
2018-11-06T05:29:33.435Z,12.30
2018-11-06T05:32:01.537Z,14.47
2018-11-06T05:34:29.469Z,12.80
2018-11-06T05:36:57.417Z,12.30
2018-11-06T05:39:25.166Z,11.03
2018-11-06T05:41:53.392Z,13.00
2018-11-06T05:44:21.381Z,13.40
2018-11-06T05:46:49.286Z,11.80
2018-11-06T05:49:16.985Z,11.93
2018-11-06T05:51:44.642Z,12.40
2018-11-06T05:54:12.562Z,14.20
2018-11-06T05:56:40.508Z,12.50
2018-11-06T05:59:08.997Z,14.47
2018-11-06T06:01:37.194Z,12.60
2018-11-06T06:04:05.662Z,13.03
2018-11-06T06:06:33.693Z,15.80
2018-11-06T06:09:01.451Z,13.37
2018-11-06T06:11:29.240Z,13.03
2018-11-06T06:13:56.921Z,13.07
2018-11-06T06:16:24.895Z,11.57
2018-11-06T06:18:52.794Z,12.00
2018-11-06T06:21:20.472Z,13.87
2018-11-06T06:23:48.151Z,13.60
2018-11-06T06:26:15.871Z,12.57
2018-11-06T06:28:43.593Z,14.47
2018-11-06T06:31:11.497Z,14.93
2018-11-06T06:33:39.237Z,12.57
2018-11-06T06:36:06.986Z,14.57
2018-11-06T06:38:34.682Z,13.70
2018-11-06T06:41:02.487Z,15.13
2018-11-06T06:43:30.554Z,13.43
2018-11-06T06:45:58.778Z,14.87
2018-11-06T06:48:26.701Z,16.17
2018-11-06T06:50:54.446Z,13.23
2018-11-06T06:53:22.185Z,16.77
2018-11-06T06:55:50.164Z,14.70
2018-11-06T06:58:17.924Z,18.40
2018-11-06T07:00:45.669Z,15.53
2018-11-06T07:03:13.677Z,14.83
2018-11-06T07:05:41.447Z,16.37
2018-11-06T07:08:09.451Z,15.73
2018-11-06T07:10:37.734Z,15.40
2018-11-06T07:13:05.571Z,16.27
2018-11-06T07:15:33.105Z,14.30
2018-11-06T07:18:00.757Z,14.23
2018-11-06T07:20:28.407Z,15.83
2018-11-06T07:22:56.091Z,15.03
2018-11-06T07:25:23.890Z,13.20
2018-11-06T07:27:51.832Z,13.80
2018-11-06T07:30:21.005Z,16.00
2018-11-06T07:32:48.725Z,17.93
2018-11-06T07:35:17.217Z,23.40
2018-11-06T07:37:45.232Z,17.90
2018-11-06T07:40:14.932Z,15.80
2018-11-06T07:42:42.609Z,15.47
2018-11-06T07:45:12.742Z,18.23
2018-11-06T07:47:40.745Z,16.30
2018-11-06T07:50:09.359Z,14.87
2018-11-06T07:52:38.146Z,16.50
2018-11-06T07:55:07.344Z,15.30
2018-11-06T07:57:34.997Z,16.80
2018-11-06T08:00:02.775Z,16.43
2018-11-06T08:02:30.444Z,12.77
2018-11-06T08:04:58.209Z,14.47
2018-11-06T08:07:25.825Z,12.57
2018-11-06T08:09:53.513Z,11.33
2018-11-06T08:12:21.544Z,10.77
2018-11-06T08:14:49.428Z,11.70
2018-11-06T08:17:17.058Z,11.73
2018-11-06T08:19:44.761Z,10.97
2018-11-06T08:22:12.437Z,11.43
2018-11-06T08:24:40.354Z,10.40
2018-11-06T08:27:08.523Z,10.83
2018-11-06T08:29:36.757Z,10.20
2018-11-06T08:32:05.224Z,10.67
2018-11-06T08:34:32.880Z,10.10
2018-11-06T08:37:00.629Z,10.27
2018-11-06T08:39:28.331Z,9.73
2018-11-06T08:41:56.129Z,10.30
2018-11-06T08:44:23.860Z,10.50
2018-11-06T08:46:51.780Z,11.03
2018-11-06T08:49:19.459Z,9.07
2018-11-06T08:51:47.167Z,9.67
2018-11-06T08:54:14.850Z,10.50
2018-11-06T08:56:42.924Z,9.40
2018-11-06T08:59:10.697Z,8.97
2018-11-06T09:01:38.698Z,10.30
2018-11-06T09:04:06.686Z,10.17
2018-11-06T09:06:34.567Z,9.60
2018-11-06T09:09:03.138Z,10.40
2018-11-06T09:11:34.525Z,11.57
2018-11-06T09:14:02.985Z,9.97
2018-11-06T09:16:31.133Z,10.70
2018-11-06T09:18:59.944Z,9.10
2018-11-06T09:21:27.657Z,11.60
2018-11-06T09:23:55.701Z,10.40
2018-11-06T09:26:23.518Z,10.73
2018-11-06T09:28:51.673Z,10.93
2018-11-06T09:31:19.622Z,10.83
2018-11-06T09:33:47.544Z,11.30
2018-11-06T09:36:15.625Z,11.67
2018-11-06T09:38:43.811Z,11.77
2018-11-06T09:41:11.688Z,11.23
2018-11-06T09:43:39.383Z,11.13
2018-11-06T09:46:07.561Z,9.63
2018-11-06T09:48:35.434Z,11.60
2018-11-06T09:51:03.385Z,11.73
2018-11-06T09:53:31.165Z,13.20
2018-11-06T09:55:59.069Z,12.37
2018-11-06T09:58:27.009Z,11.23
2018-11-06T10:00:54.965Z,11.83
2018-11-06T10:03:22.970Z,11.87
2018-11-06T10:05:51.454Z,13.80
2018-11-06T10:08:20.294Z,10.73
2018-11-06T10:10:48.608Z,11.73
2018-11-06T10:13:17.016Z,12.37
2018-11-06T10:15:44.890Z,12.73
2018-11-06T10:18:12.630Z,12.93
2018-11-06T10:20:42.273Z,11.90
2018-11-06T10:23:10.768Z,12.50
2018-11-06T10:25:40.102Z,12.40
2018-11-06T10:28:08.830Z,12.30
2018-11-06T10:30:36.660Z,12.50
2018-11-06T10:33:04.750Z,12.27
2018-11-06T10:35:33.134Z,11.37
2018-11-06T10:38:01.291Z,12.10
2018-11-06T10:40:29.190Z,12.63
2018-11-06T10:42:56.893Z,12.80
2018-11-06T10:45:24.608Z,12.80
2018-11-06T10:47:52.278Z,12.70
2018-11-06T10:50:20.031Z,13.20
2018-11-06T10:52:48.310Z,12.50
2018-11-06T10:55:16.522Z,13.23
2018-11-06T10:57:44.229Z,12.13
2018-11-06T11:00:18.502Z,11.60
2018-11-06T11:02:53.145Z,12.97
2018-11-06T11:05:22.777Z,13.10
2018-11-06T11:07:50.453Z,12.30
2018-11-06T11:10:18.397Z,13.40
2018-11-06T11:12:46.161Z,12.13
2018-11-06T11:15:13.954Z,12.50
2018-11-06T11:17:41.657Z,12.37
2018-11-06T11:20:11.411Z,12.90
2018-11-06T11:22:40.096Z,14.03
2018-11-06T11:25:09.753Z,13.53
2018-11-06T11:27:37.906Z,12.03
2018-11-06T11:30:08.264Z,13.30
2018-11-06T11:32:36.275Z,12.00
2018-11-06T11:35:04.646Z,14.40
2018-11-06T11:37:32.747Z,14.20
2018-11-06T11:40:00.970Z,13.83
2018-11-06T11:42:28.929Z,12.93
2018-11-06T11:44:57.041Z,12.27
2018-11-06T11:47:24.806Z,13.93
2018-11-06T11:49:56.078Z,13.83
2018-11-06T11:52:23.860Z,13.50
2018-11-06T11:54:51.728Z,13.10
2018-11-06T11:57:19.650Z,13.40
2018-11-06T11:59:47.703Z,13.43
2018-11-06T12:02:16.107Z,12.90
2018-11-06T12:04:43.910Z,13.53
2018-11-06T12:07:11.756Z,12.17
2018-11-06T12:09:39.746Z,13.37
2018-11-06T12:12:07.505Z,13.00
2018-11-06T12:14:35.447Z,12.93
2018-11-06T12:17:03.595Z,14.07
2018-11-06T12:19:33.340Z,13.70
2018-11-06T12:22:01.491Z,14.00
2018-11-06T12:24:30.055Z,13.37
2018-11-06T12:26:58.147Z,14.17
2018-11-06T12:29:25.961Z,14.23
2018-11-06T12:31:53.821Z,13.20
2018-11-06T12:34:21.736Z,13.97
2018-11-06T12:36:49.561Z,12.40
2018-11-06T12:39:17.576Z,12.30
2018-11-06T12:41:45.429Z,12.40
2018-11-06T12:44:13.298Z,13.30
2018-11-06T12:46:41.245Z,12.00
2018-11-06T12:49:09.955Z,13.10
2018-11-06T12:51:38.503Z,12.30
2018-11-06T12:54:07.072Z,12.63
2018-11-06T12:56:36.299Z,13.90
2018-11-06T12:59:04.381Z,12.30
2018-11-06T13:01:32.291Z,14.40
2018-11-06T13:04:01.202Z,12.53
2018-11-06T13:06:29.526Z,13.03
2018-11-06T13:08:57.826Z,13.30
2018-11-06T13:11:25.986Z,12.97
2018-11-06T13:13:53.990Z,13.47
2018-11-06T13:16:22.245Z,14.30
2018-11-06T13:18:50.262Z,13.77
2018-11-06T13:21:17.952Z,14.00
2018-11-06T13:23:45.937Z,14.17
2018-11-06T13:26:13.886Z,14.17
2018-11-06T13:28:42.140Z,13.77
2018-11-06T13:31:09.933Z,15.07
2018-11-06T13:33:37.800Z,14.57
2018-11-06T13:36:06.042Z,13.67
2018-11-06T13:38:34.133Z,14.43
2018-11-06T13:41:01.928Z,14.27
2018-11-06T13:43:30.180Z,13.03
2018-11-06T13:45:58.453Z,13.07
2018-11-06T13:48:26.678Z,14.37
2018-11-06T13:50:54.946Z,15.40
2018-11-06T13:53:23.042Z,13.87
2018-11-06T13:55:51.042Z,13.43
2018-11-06T13:58:19.031Z,13.27
2018-11-06T14:00:47.062Z,15.80
2018-11-06T14:03:15.320Z,13.90
2018-11-06T14:05:43.521Z,15.10
2018-11-06T14:08:11.490Z,14.77
2018-11-06T14:10:39.137Z,15.13
2018-11-06T14:13:07.879Z,14.90
2018-11-06T14:15:36.072Z,16.27
2018-11-06T14:18:04.158Z,16.13
2018-11-06T14:20:32.279Z,17.30
2018-11-06T14:22:59.952Z,17.00
2018-11-06T14:25:27.625Z,15.87
2018-11-06T14:27:55.443Z,16.90
2018-11-06T14:30:23.202Z,15.77
2018-11-06T14:32:51.194Z,17.53
2018-11-06T14:35:20.463Z,17.73
2018-11-06T14:37:48.589Z,16.70
2018-11-06T14:40:16.901Z,16.73
2018-11-06T14:42:45.656Z,17.20
2018-11-06T14:45:15.074Z,17.17
2018-11-06T14:47:43.208Z,18.50
2018-11-06T14:50:12.042Z,15.80
2018-11-06T14:52:40.093Z,16.77
2018-11-06T14:55:12.015Z,17.77
2018-11-06T14:57:40.362Z,18.70
2018-11-06T15:00:16.907Z,18.80
2018-11-06T15:02:49.341Z,17.33
2018-11-06T15:05:18.084Z,18.63
2018-11-06T15:07:46.358Z,16.47
2018-11-06T15:10:14.075Z,17.20
2018-11-06T15:12:42.077Z,18.40
2018-11-06T15:15:11.511Z,17.87
2018-11-06T15:17:40.500Z,20.30
2018-11-06T15:20:11.114Z,20.67
2018-11-06T15:22:39.633Z,19.00
2018-11-06T15:25:08.100Z,19.83
2018-11-06T15:27:36.208Z,18.60
2018-11-06T15:30:04.637Z,17.50
2018-11-06T15:32:32.526Z,20.30
2018-11-06T15:35:00.693Z,19.33
2018-11-06T15:37:29.109Z,19.20
2018-11-06T15:39:57.442Z,18.77
2018-11-06T15:42:25.722Z,19.37
2018-11-06T15:44:54.082Z,18.27
2018-11-06T15:47:21.961Z,18.80
2018-11-06T15:52:56.266Z,19.37
2018-11-06T15:55:26.164Z,17.73
2018-11-06T15:57:57.693Z,17.20
2018-11-06T16:00:43.370Z,18.20
2018-11-06T16:03:24.793Z,18.37
2018-11-06T16:05:58.711Z,16.43
2018-11-06T16:08:27.370Z,18.23
2018-11-06T16:10:56.260Z,19.40
2018-11-06T16:13:31.423Z,18.37
2018-11-06T16:16:00.329Z,18.07
2018-11-06T16:18:30.550Z,17.70
2018-11-06T16:21:00.001Z,18.67
2018-11-06T16:23:28.314Z,19.27
2018-11-06T16:25:59.602Z,19.10
2018-11-06T16:28:29.265Z,18.93
2018-11-06T16:30:59.356Z,26.57
2018-11-06T16:33:27.661Z,20.40
2018-11-06T16:36:12.235Z,19.70
2018-11-06T16:38:44.955Z,19.00
2018-11-06T16:41:15.218Z,20.27
2018-11-06T16:43:43.437Z,18.37
2018-11-06T16:46:11.683Z,16.40
2018-11-06T16:48:39.941Z,16.80
2018-11-06T16:51:08.209Z,15.67
2018-11-06T16:53:36.164Z,16.43
2018-11-06T16:56:04.453Z,16.43
2018-11-06T16:58:37.031Z,16.30
2018-11-06T17:01:05.735Z,14.00
2018-11-06T17:03:34.884Z,16.23
2018-11-06T17:06:06.581Z,17.37
2018-11-06T17:08:34.738Z,20.30
2018-11-06T17:11:08.549Z,19.87
2018-11-06T17:13:36.763Z,17.50
2018-11-06T17:16:06.949Z,18.97
2018-11-06T17:18:36.655Z,20.70
2018-11-06T17:21:05.787Z,26.17
2018-11-06T17:23:34.328Z,23.37
2018-11-06T17:26:05.507Z,20.33
2018-11-06T17:28:34.193Z,19.87
2018-11-06T17:31:04.073Z,19.90
2018-11-06T17:33:32.977Z,18.07
2018-11-06T17:36:01.446Z,15.43
2018-11-06T17:38:30.250Z,16.93
2018-11-06T17:41:01.159Z,19.23
2018-11-06T17:43:30.722Z,18.97
2018-11-06T17:45:59.234Z,18.50
2018-11-06T17:48:28.982Z,19.60
2018-11-06T17:50:57.670Z,20.90
2018-11-06T17:53:29.134Z,21.00
2018-11-06T17:55:56.848Z,17.50
2018-11-06T18:01:29.089Z,19.93
2018-11-06T18:03:59.389Z,17.93
2018-11-06T18:06:29.590Z,17.07
2018-11-06T18:09:00.554Z,16.70
2018-11-06T18:11:37.229Z,16.47
2018-11-06T18:14:10.567Z,16.50
2018-11-06T18:16:40.553Z,17.53
2018-11-06T18:19:09.010Z,17.87
2018-11-06T18:21:39.519Z,16.77
2018-11-06T18:24:08.046Z,17.50
2018-11-06T18:26:37.941Z,17.23
2018-11-06T18:29:06.701Z,19.03
2018-11-06T18:31:35.241Z,16.53
2018-11-06T18:34:03.646Z,17.20
2018-11-06T18:36:32.398Z,18.20
2018-11-06T18:39:02.154Z,19.07
2018-11-06T18:41:32.485Z,17.70
2018-11-06T18:44:01.468Z,17.93
2018-11-06T18:46:29.284Z,16.63
2018-11-06T18:48:57.107Z,18.10
2018-11-06T18:51:24.863Z,19.40
2018-11-06T18:53:53.524Z,20.93
2018-11-06T18:56:22.687Z,19.60
2018-11-06T18:58:52.273Z,19.57
2018-11-06T19:01:20.902Z,16.80
2018-11-06T19:03:50.990Z,19.17
2018-11-06T19:06:21.247Z,18.00
2018-11-06T19:08:49.347Z,17.23
2018-11-06T19:11:19.106Z,19.27
2018-11-06T19:13:47.529Z,20.23
2018-11-06T19:16:23.955Z,18.50
2018-11-06T19:18:54.033Z,19.10
2018-11-06T19:21:22.719Z,20.43
2018-11-06T19:23:51.208Z,19.60
2018-11-06T19:26:19.492Z,18.80
2018-11-06T19:28:49.096Z,19.90
2018-11-06T19:31:20.751Z,20.23
2018-11-06T19:33:50.627Z,21.03
2018-11-06T19:36:23.328Z,22.13
2018-11-06T19:38:58.415Z,24.93
2018-11-06T19:46:49.413Z,24.10
2018-11-06T19:49:26.106Z,22.90
2018-11-06T19:52:00.999Z,23.03
2018-11-06T19:54:38.378Z,22.50
2018-11-06T19:57:10.293Z,21.37
2018-11-06T19:59:38.806Z,23.33
2018-11-06T20:02:14.859Z,23.50
2018-11-06T20:04:42.741Z,23.67
2018-11-06T20:07:10.760Z,23.07
2018-11-06T20:09:41.085Z,22.27
2018-11-06T20:12:13.631Z,23.50
2018-11-06T20:14:47.540Z,22.10
2018-11-06T20:17:16.094Z,21.97
2018-11-06T20:19:45.319Z,21.30
2018-11-06T20:22:20.488Z,20.83
2018-11-06T20:24:51.563Z,20.67
2018-11-06T20:27:22.148Z,20.90
2018-11-06T20:29:51.318Z,21.67
2018-11-06T20:32:36.579Z,20.60
2018-11-06T20:35:08.163Z,22.40
2018-11-06T20:37:43.191Z,26.47
2018-11-06T20:40:19.398Z,23.50
2018-11-06T20:42:48.037Z,22.70
2018-11-06T20:45:17.637Z,24.17
2018-11-06T20:47:46.762Z,22.30
2018-11-06T20:50:27.487Z,23.03
2018-11-06T20:52:58.160Z,21.20
2018-11-06T20:55:26.603Z,22.80
2018-11-06T21:00:30.222Z,28.97
2018-11-06T21:03:02.539Z,26.97
2018-11-06T21:05:32.018Z,27.17
2018-11-06T21:08:00.147Z,27.67
2018-11-06T21:10:31.189Z,26.20
2018-11-06T21:12:59.392Z,27.53
2018-11-06T21:15:27.952Z,28.07
2018-11-06T21:18:20.915Z,25.77
2018-11-06T21:20:52.022Z,26.23
2018-11-06T21:23:22.338Z,26.60
2018-11-06T21:25:51.678Z,28.23
2018-11-06T21:28:35.812Z,26.50
2018-11-06T21:31:05.621Z,26.47
2018-11-06T21:33:35.983Z,26.27
2018-11-06T21:36:07.470Z,26.57
2018-11-06T21:38:38.606Z,23.97
2018-11-06T21:41:25.266Z,24.93
2018-11-06T21:43:54.735Z,25.43
2018-11-06T21:46:27.014Z,26.43
2018-11-06T21:48:55.401Z,26.40
2018-11-06T21:51:23.879Z,27.40
2018-11-06T21:53:52.806Z,31.37
2018-11-06T21:56:27.218Z,31.83
2018-11-06T21:59:03.003Z,31.00
2018-11-06T22:01:38.652Z,31.20
2018-11-06T22:04:11.823Z,38.93
2018-11-06T22:09:28.565Z,29.93
2018-11-06T22:14:39.422Z,31.63
2018-11-06T22:17:08.492Z,32.63
2018-11-06T22:19:41.322Z,27.17
2018-11-06T22:22:14.992Z,21.33
2018-11-06T22:24:45.138Z,20.00
2018-11-06T22:27:15.044Z,21.00
2018-11-06T22:29:44.949Z,23.70
2018-11-06T22:32:14.031Z,23.33
2018-11-06T22:34:42.679Z,24.23
2018-11-06T22:37:14.006Z,25.73
2018-11-06T22:39:43.737Z,25.63
2018-11-06T22:42:11.999Z,26.93
2018-11-06T22:44:41.328Z,27.50
2018-11-06T22:47:09.454Z,27.50
2018-11-06T22:49:38.470Z,25.97
2018-11-06T22:52:10.788Z,26.70
2018-11-06T22:54:51.241Z,26.90
2018-11-06T22:57:19.878Z,28.50
2018-11-06T22:59:49.069Z,25.60
2018-11-06T23:02:17.851Z,26.53
2018-11-06T23:04:46.608Z,28.03
2018-11-06T23:07:20.528Z,24.90
2018-11-06T23:09:49.362Z,26.57
2018-11-06T23:12:18.161Z,24.90
2018-11-06T23:14:51.710Z,26.07
2018-11-06T23:17:20.873Z,25.17
2018-11-06T23:19:50.133Z,23.80
2018-11-06T23:22:18.371Z,24.93
2018-11-06T23:24:48.181Z,21.10
2018-11-06T23:27:16.787Z,22.13
2018-11-06T23:29:46.014Z,22.27
2018-11-06T23:32:15.454Z,21.43
2018-11-06T23:34:44.092Z,21.30
2018-11-06T23:37:13.653Z,22.60
2018-11-06T23:39:41.654Z,20.37
2018-11-06T23:42:15.641Z,19.43
2018-11-06T23:44:44.969Z,20.27
2018-11-06T23:47:13.985Z,17.60
2018-11-06T23:49:42.336Z,20.37
2018-11-06T23:52:11.135Z,18.60
2018-11-06T23:54:39.505Z,18.33
2018-11-06T23:57:08.164Z,19.13
2018-11-06T23:59:36.748Z,19.40
